logo tempoitalia

Diretta Meteo Craiova, Romanialunedì 31 agosto ore 08:00

Mappa
Sereno 20 °C Sereno 24 Ore: T.min 18 T.max 32
Ponente Est/Nord-Est Km/h 11.1 Punto di rugiada: 17 °C Umidità: 82% Visibilità: 10 Km
Il sole sorge alle: 06:46 Il sole tramonta alle: 20:03
31 Agosto 2026 08:00 tempo osservato: Sereno Sereno 20 82 1018 vento: Nord E/NE 11.1
31 Agosto 2026 07:30 tempo osservato: Sereno Sereno 19 82 1018 vento: Nord E/NE 11.1
31 Agosto 2026 07:00 tempo osservato: Sereno Sereno 18 88 1018 vento: Nord E/NE 9.3
31 Agosto 2026 06:30 tempo osservato: Sereno Sereno 18 88 1018 vento: Nord E/NE 13
31 Agosto 2026 06:00 tempo osservato: Sereno Sereno 19 82 1017 vento: Nord E/NE 11.1
31 Agosto 2026 05:30 tempo osservato: Sereno Sereno 19 82 1018 vento: Nord E/NE 13
31 Agosto 2026 05:00 tempo osservato: Sereno Sereno 19 82 1018 vento: Nord E/NE 13
31 Agosto 2026 04:30 tempo osservato: Sereno Sereno 18 88 1018 vento: Nord NE 11.1
31 Agosto 2026 04:00 tempo osservato: Sereno Sereno 18 82 1018 vento: Nord E/NE 11.1
31 Agosto 2026 03:30 tempo osservato: Sereno Sereno 18 77 1018 vento: Nord NE 11.1
31 Agosto 2026 03:00 tempo osservato: Sereno Sereno 19 72 1018 vento: Nord NE 9.3
31 Agosto 2026 02:30 tempo osservato: Sereno Sereno 19 72 1018 vento: Nord N/NE 7.4
31 Agosto 2026 02:00 tempo osservato: Sereno Sereno 20 68 1018 vento: Nord NE 7.4
31 Agosto 2026 01:30 tempo osservato: Sereno Sereno 20 68 1018 vento: Nord E 7.4
31 Agosto 2026 01:00 tempo osservato: Sereno Sereno 21 64 1018 vento: Nord E 11.1
31 Agosto 2026 00:30 tempo osservato: Sereno Sereno 22 60 1017 vento: Nord E 11.1
31 Agosto 2026 00:00 tempo osservato: Sereno Sereno 21 60 1017 vento: Nord E 9.3
30 Agosto 2026 23:30 tempo osservato: Sereno Sereno 21 64 1017 vento: Nord E 11.1
30 Agosto 2026 23:00 tempo osservato: Sereno Sereno 22 60 1017 vento: Nord E/SE 7.4
30 Agosto 2026 22:30 tempo osservato: Sereno Sereno 24 53 1017 vento: Nord SE 9.3
30 Agosto 2026 22:00 tempo osservato: Sereno Sereno 24 53 1017 vento: Nord E/SE 9.3
30 Agosto 2026 21:30 tempo osservato: Sereno Sereno 24 53 1017 vento: Nord E/SE 9.3
30 Agosto 2026 21:00 tempo osservato: Sereno Sereno 25 50 1016 vento: Nord E/SE 9.3
30 Agosto 2026 20:30 tempo osservato: Sereno Sereno 26 47 1016 vento: Nord E/SE 9.3
30 Agosto 2026 20:00 tempo osservato: Sereno Sereno 27 44 1016 vento: Nord E/SE 11.1
30 Agosto 2026 19:30 tempo osservato: Sereno Sereno 29 39 1016 vento: Nord E/SE 16.7
30 Agosto 2026 19:00 tempo osservato: Sereno Sereno 30 37 1016 vento: Nord E 14.8
30 Agosto 2026 18:30 tempo osservato: Sereno Sereno 31 35 1016 vento: Nord E/SE 7.4
30 Agosto 2026 18:00 tempo osservato: Sereno Sereno 32 33 1016 vento: Nord N 5.5
30 Agosto 2026 17:30 tempo osservato: Sereno Sereno 32 33 1016 vento: Nord SO 7.4
30 Agosto 2026 17:00 tempo osservato: Sereno Sereno 32 33 1016 vento: Nord N 3.7
30 Agosto 2026 16:30 tempo osservato: Sereno Sereno 32 33 1016 vento: Nord S/SO 7.4
30 Agosto 2026 16:00 tempo osservato: Sereno Sereno 31 35 1017 vento: Nord S 9.3
30 Agosto 2026 15:30 tempo osservato: Sereno Sereno 31 35 1017 vento: Nord N 5.5
30 Agosto 2026 15:00 tempo osservato: Sereno Sereno 31 37 1017 vento: Nord S/SE 11.1
30 Agosto 2026 14:30 tempo osservato: Sereno Sereno 30 40 1017 vento: Nord N 7.4
30 Agosto 2026 14:00 tempo osservato: Sereno Sereno 30 40 1018 vento: Nord N 9.3
30 Agosto 2026 13:30 tempo osservato: Sereno Sereno 30 40 1018 vento: Nord N 5.5
30 Agosto 2026 13:00 tempo osservato: Sereno Sereno 29 45 1018 vento: Nord N 5.5
30 Agosto 2026 12:30 tempo osservato: Sereno Sereno 28 48 1018 vento: Nord E/NE 7.4
30 Agosto 2026 12:00 tempo osservato: Sereno Sereno 27 47 1019 vento: Nord N 7.4
30 Agosto 2026 11:30 tempo osservato: Sereno Sereno 27 50 1019 vento: Nord N 7.4
30 Agosto 2026 11:00 tempo osservato: Sereno Sereno 26 54 1019 vento: Nord N 5.5
30 Agosto 2026 10:30 tempo osservato: Sereno Sereno 25 57 1018 vento: Nord N 3.7
30 Agosto 2026 10:00 tempo osservato: Sereno Sereno 23 68 1018 vento: Nord N 5.5
30 Agosto 2026 09:30 tempo osservato: Sereno Sereno 22 73 1018 vento: Nord N 5.5
30 Agosto 2026 09:00 tempo osservato: Sereno Sereno 21 77 1018 vento: Nord N 5.5